createdAt,value
2023-03-22T00:02:37.214Z,9.79
2023-03-22T00:05:06.433Z,9.72
2023-03-22T00:07:34.695Z,9.71
2023-03-22T00:10:10.849Z,9.74
2023-03-22T00:12:45.905Z,9.73
2023-03-22T00:15:15.501Z,9.67
2023-03-22T00:17:45.009Z,9.61
2023-03-22T00:20:20.587Z,9.56
2023-03-22T00:22:50.408Z,9.57
2023-03-22T00:25:23.972Z,9.60
2023-03-22T00:27:54.939Z,9.59
2023-03-22T00:30:26.134Z,9.56
2023-03-22T00:32:58.105Z,9.52
2023-03-22T00:35:33.558Z,9.48
2023-03-22T00:38:06.229Z,9.51
2023-03-22T00:40:37.234Z,9.56
2023-03-22T00:43:05.773Z,9.57
2023-03-22T00:45:36.452Z,9.55
2023-03-22T00:48:12.054Z,9.50
2023-03-22T00:50:43.248Z,9.48
2023-03-22T00:53:11.634Z,9.51
2023-03-22T00:55:41.434Z,9.55
2023-03-22T00:58:12.572Z,9.55
2023-03-22T01:00:41.593Z,9.54
2023-03-22T01:03:16.689Z,9.50
2023-03-22T01:05:49.516Z,9.44
2023-03-22T01:08:17.676Z,9.47
2023-03-22T01:10:51.372Z,9.52
2023-03-22T01:13:20.468Z,9.54
2023-03-22T01:15:52.722Z,9.53
2023-03-22T01:18:25.757Z,9.50
2023-03-22T01:20:54.825Z,9.45
2023-03-22T01:23:27.020Z,9.46
2023-03-22T01:25:59.932Z,9.49
2023-03-22T01:28:31.131Z,9.49
2023-03-22T01:31:03.027Z,9.46
2023-03-22T01:33:36.790Z,9.41
2023-03-22T01:36:07.566Z,9.36
2023-03-22T01:38:42.123Z,9.38
2023-03-22T01:41:10.361Z,9.43
2023-03-22T01:44:11.399Z,9.41
2023-03-22T01:46:48.715Z,9.37
2023-03-22T01:49:22.453Z,9.31
2023-03-22T01:51:59.141Z,9.25
2023-03-22T01:54:49.966Z,9.30
2023-03-22T01:57:28.629Z,9.34
2023-03-22T01:59:58.553Z,9.34
2023-03-22T02:02:43.650Z,9.31
2023-03-22T02:05:22.493Z,9.27
2023-03-22T02:07:52.457Z,9.29
2023-03-22T02:10:27.598Z,9.34
2023-03-22T02:14:39.067Z,9.37
2023-03-22T02:18:06.626Z,9.32
2023-03-22T02:20:45.481Z,9.27
2023-03-22T02:23:35.403Z,9.30
2023-03-22T02:26:41.716Z,9.33
2023-03-22T02:29:33.168Z,9.32
2023-03-22T02:32:27.073Z,9.28
2023-03-22T02:35:23.073Z,9.24
2023-03-22T02:38:34.765Z,9.29
2023-03-22T02:41:11.908Z,9.32
2023-03-22T02:44:01.362Z,9.30
2023-03-22T02:46:36.396Z,9.27
2023-03-22T02:49:08.125Z,9.24
2023-03-22T02:51:42.704Z,9.28
2023-03-22T02:54:26.522Z,9.33
2023-03-22T02:57:15.880Z,9.32
2023-03-22T02:59:46.484Z,9.26
2023-03-22T03:02:18.480Z,9.19
2023-03-22T03:04:48.913Z,9.22
2023-03-22T03:07:22.273Z,9.27
2023-03-22T03:09:55.216Z,9.28
2023-03-22T03:12:24.896Z,9.27
2023-03-22T03:14:54.813Z,9.24
2023-03-22T03:17:44.188Z,9.19
2023-03-22T03:20:37.124Z,9.20
2023-03-22T03:23:17.112Z,9.22
2023-03-22T03:26:01.727Z,9.19
2023-03-22T03:28:43.485Z,9.15
2023-03-22T03:31:25.931Z,9.08
2023-03-22T03:34:12.705Z,9.08
2023-03-22T03:36:43.407Z,9.09
2023-03-22T03:39:13.415Z,9.08
2023-03-22T03:41:42.894Z,9.03
2023-03-22T03:44:13.852Z,8.96
2023-03-22T03:46:42.578Z,8.90
2023-03-22T03:49:13.734Z,8.93
2023-03-22T03:51:52.737Z,8.97
2023-03-22T03:54:21.388Z,8.98
2023-03-22T03:56:53.870Z,8.97
2023-03-22T03:59:22.346Z,8.95
2023-03-22T04:01:52.928Z,8.93
2023-03-22T04:04:37.216Z,8.97
2023-03-22T04:07:12.062Z,9.02
2023-03-22T04:09:40.949Z,9.04
2023-03-22T04:12:17.387Z,9.01
2023-03-22T04:14:56.542Z,8.97
2023-03-22T04:17:29.321Z,9.00
2023-03-22T04:19:59.622Z,9.05
2023-03-22T04:22:28.300Z,9.05
2023-03-22T04:25:02.689Z,9.04
2023-03-22T04:27:37.985Z,9.02
2023-03-22T04:30:37.411Z,9.00
2023-03-22T04:42:48.705Z,8.96
2023-03-22T04:45:32.512Z,8.92
2023-03-22T04:48:28.436Z,9.00
2023-03-22T04:51:04.118Z,9.06
2023-03-22T04:53:39.536Z,9.06
2023-03-22T04:56:10.693Z,9.05
2023-03-22T04:58:42.761Z,9.04
2023-03-22T05:01:18.217Z,9.05
2023-03-22T05:03:50.829Z,9.09
2023-03-22T05:06:22.841Z,9.09
2023-03-22T05:09:01.089Z,9.05
2023-03-22T05:11:34.016Z,9.01
2023-03-22T05:14:26.647Z,9.06
2023-03-22T05:16:56.842Z,9.11
2023-03-22T05:19:25.679Z,9.12
2023-03-22T05:21:58.719Z,9.10
2023-03-22T05:24:39.819Z,9.04
2023-03-22T05:27:11.108Z,8.99
2023-03-22T05:29:49.125Z,9.00
2023-03-22T05:32:26.098Z,9.05
2023-03-22T05:34:57.621Z,9.06
2023-03-22T05:37:38.340Z,9.04
2023-03-22T05:40:10.871Z,9.03
2023-03-22T05:42:46.138Z,9.06
2023-03-22T05:45:27.390Z,9.13
2023-03-22T05:48:11.827Z,9.15
2023-03-22T05:50:45.238Z,9.14
2023-03-22T05:53:13.856Z,9.14
2023-03-22T05:56:10.196Z,9.19
2023-03-22T05:58:42.716Z,9.26
2023-03-22T06:01:20.623Z,9.27
2023-03-22T06:03:52.642Z,9.24
2023-03-22T06:06:31.173Z,9.16
2023-03-22T06:09:17.673Z,9.16
2023-03-22T06:11:51.457Z,9.21
2023-03-22T06:14:19.918Z,9.24
2023-03-22T06:17:09.047Z,9.24
2023-03-22T06:19:41.620Z,9.25
2023-03-22T06:22:11.232Z,9.34
2023-03-22T06:24:40.917Z,9.46
2023-03-22T06:27:09.997Z,9.55
2023-03-22T06:29:41.853Z,9.59
2023-03-22T06:32:10.719Z,9.62
2023-03-22T06:34:39.271Z,9.69
2023-03-22T06:37:07.940Z,9.75
2023-03-22T06:39:40.514Z,9.78
2023-03-22T06:42:10.904Z,9.77
2023-03-22T06:44:42.488Z,9.74
2023-03-22T06:47:27.569Z,9.79
2023-03-22T06:50:19.317Z,9.87
2023-03-22T06:53:09.908Z,9.90
2023-03-22T06:55:38.381Z,9.89
2023-03-22T06:58:13.747Z,9.87
2023-03-22T07:00:42.416Z,9.90
2023-03-22T07:03:10.859Z,9.98
2023-03-22T07:05:52.339Z,10.05
2023-03-22T07:08:22.644Z,10.07
2023-03-22T07:10:53.533Z,10.03
2023-03-22T07:13:25.405Z,9.99
2023-03-22T07:15:59.225Z,10.02
2023-03-22T07:18:37.860Z,10.08
2023-03-22T07:21:06.593Z,10.06
2023-03-22T07:23:35.995Z,10.03
2023-03-22T07:26:08.332Z,9.99
2023-03-22T07:28:44.669Z,10.00
2023-03-22T07:31:14.002Z,10.08
2023-03-22T07:33:56.417Z,10.12
2023-03-22T07:36:27.608Z,10.15
2023-03-22T07:38:58.457Z,10.15
2023-03-22T07:41:39.775Z,10.12
2023-03-22T07:44:47.321Z,10.15
2023-03-22T07:47:37.853Z,10.19
2023-03-22T07:50:22.981Z,10.20
2023-03-22T07:52:59.165Z,10.20
2023-03-22T07:55:28.457Z,10.23
2023-03-22T07:57:56.645Z,10.33
2023-03-22T08:00:27.208Z,10.49
2023-03-22T08:03:02.772Z,10.61
2023-03-22T08:05:51.886Z,10.72
2023-03-22T08:08:20.920Z,10.80
2023-03-22T08:10:51.742Z,10.88
2023-03-22T08:13:20.877Z,11.01
2023-03-22T08:15:49.110Z,11.11
2023-03-22T08:18:22.215Z,11.16
2023-03-22T08:20:58.271Z,11.13
2023-03-22T08:23:41.004Z,11.09
2023-03-22T08:26:31.071Z,11.19
2023-03-22T08:29:06.046Z,11.31
2023-03-22T08:31:35.543Z,11.44
2023-03-22T08:34:03.665Z,11.50
2023-03-22T08:36:32.543Z,11.49
2023-03-22T08:39:04.503Z,11.48
2023-03-22T08:41:50.754Z,11.59
2023-03-22T08:44:19.126Z,11.75
2023-03-22T08:46:47.431Z,11.88
2023-03-22T08:49:17.017Z,11.94
2023-03-22T08:51:53.461Z,11.95
2023-03-22T08:54:36.769Z,12.00
2023-03-22T08:57:08.434Z,12.04
2023-03-22T08:59:54.594Z,12.08
2023-03-22T09:02:27.499Z,12.12
2023-03-22T09:04:56.391Z,12.13
2023-03-22T09:07:27.650Z,12.07
2023-03-22T09:10:14.117Z,11.96
2023-03-22T09:12:47.325Z,11.89
2023-03-22T09:15:20.423Z,11.90
2023-03-22T09:17:58.544Z,12.03
2023-03-22T09:20:27.515Z,12.21
2023-03-22T09:22:57.334Z,12.38
2023-03-22T09:25:25.674Z,12.47
2023-03-22T09:27:56.213Z,12.56
2023-03-22T10:01:05.322Z,13.57
2023-03-22T10:04:11.455Z,13.54
2023-03-22T10:06:38.382Z,13.66
2023-03-22T10:09:32.645Z,13.78
2023-03-22T10:12:06.528Z,13.84
2023-03-22T10:14:38.141Z,13.88
2023-03-22T10:17:08.954Z,13.87
2023-03-22T10:19:46.876Z,13.84
2023-03-22T10:22:15.864Z,13.83
2023-03-22T10:24:45.099Z,13.81
2023-03-22T10:27:16.847Z,13.83
2023-03-22T10:30:13.182Z,13.85
2023-03-22T10:32:57.514Z,13.89
2023-03-22T10:35:25.405Z,13.97
2023-03-22T10:37:52.656Z,14.02
2023-03-22T10:40:35.059Z,14.03
2023-03-22T10:43:20.272Z,14.04
2023-03-22T10:45:46.921Z,14.10
2023-03-22T10:48:28.814Z,14.16
2023-03-22T10:50:55.914Z,14.17
2023-03-22T10:53:34.138Z,14.13
2023-03-22T10:56:01.602Z,14.08
2023-03-22T10:58:30.042Z,14.09
2023-03-22T11:01:01.818Z,14.07
2023-03-22T11:03:40.249Z,14.03
2023-03-22T11:06:13.528Z,14.00
2023-03-22T11:08:44.970Z,13.98
2023-03-22T11:11:38.301Z,13.98
2023-03-22T11:14:31.195Z,14.00
2023-03-22T11:17:19.337Z,13.99
2023-03-22T11:19:54.961Z,14.01
2023-03-22T11:22:24.296Z,14.10
2023-03-22T11:24:54.965Z,14.22
2023-03-22T11:27:35.892Z,14.33
2023-03-22T11:30:20.417Z,14.40
2023-03-22T11:32:47.910Z,14.46
2023-03-22T11:35:24.991Z,14.52
2023-03-22T11:37:53.304Z,14.55
2023-03-22T11:40:30.939Z,14.58
2023-03-22T11:43:19.297Z,14.61
2023-03-22T11:45:59.296Z,14.68
2023-03-22T11:48:29.482Z,14.77
2023-03-22T11:51:10.710Z,14.80
2023-03-22T11:53:39.494Z,14.76
2023-03-22T11:56:08.612Z,14.76
2023-03-22T11:59:03.493Z,14.79
2023-03-22T12:01:35.201Z,14.83
2023-03-22T12:04:04.540Z,14.86
2023-03-22T12:06:34.301Z,14.84
2023-03-22T12:09:25.246Z,14.83
2023-03-22T12:11:55.348Z,14.85
2023-03-22T12:14:32.408Z,14.89
2023-03-22T12:17:19.004Z,14.95
2023-03-22T12:20:18.301Z,15.00
2023-03-22T12:22:52.224Z,15.03
2023-03-22T12:25:21.985Z,15.03
2023-03-22T12:28:13.024Z,15.01
2023-03-22T12:30:47.057Z,14.98
2023-03-22T12:33:18.131Z,14.97
2023-03-22T12:35:45.962Z,14.99
2023-03-22T12:38:34.053Z,15.01
2023-03-22T12:41:04.553Z,15.00
2023-03-22T12:44:01.189Z,14.96
2023-03-22T12:46:40.273Z,14.92
2023-03-22T12:49:28.834Z,14.94
2023-03-22T12:52:20.985Z,14.96
2023-03-22T12:54:51.313Z,14.96
2023-03-22T12:57:18.711Z,14.95
2023-03-22T12:59:49.202Z,14.94
2023-03-22T13:02:34.215Z,14.95
2023-03-22T13:05:12.468Z,15.00
2023-03-22T13:07:48.469Z,15.03
2023-03-22T13:10:31.297Z,15.05
2023-03-22T13:13:12.316Z,15.06
2023-03-22T13:15:55.721Z,15.06
2023-03-22T13:18:31.767Z,15.05
2023-03-22T13:21:19.286Z,15.04
2023-03-22T13:23:53.436Z,15.00
2023-03-22T13:26:22.730Z,14.96
2023-03-22T13:29:02.726Z,14.95
2023-03-22T13:31:36.171Z,14.93
2023-03-22T13:34:04.232Z,14.90
2023-03-22T13:42:36.595Z,14.95
2023-03-22T13:45:09.443Z,14.95
2023-03-22T13:47:44.937Z,14.98
2023-03-22T13:50:28.784Z,15.00
2023-03-22T13:53:06.882Z,14.98
2023-03-22T13:55:51.938Z,14.97
2023-03-22T13:58:49.795Z,14.98
2023-03-22T14:01:35.597Z,14.99
2023-03-22T14:04:10.839Z,14.99
2023-03-22T14:07:15.028Z,15.01
2023-03-22T14:09:49.303Z,15.01
2023-03-22T14:12:36.700Z,15.00
2023-03-22T14:15:05.624Z,14.98
2023-03-22T14:17:50.703Z,14.97
2023-03-22T14:20:28.260Z,14.96
